createdAt,value
2022-08-18T00:00:50.924Z,99750.78
2022-08-18T00:02:05.389Z,99747.03
2022-08-18T00:03:27.130Z,99745.41
2022-08-18T00:04:35.902Z,99738.50
2022-08-18T00:05:39.045Z,99733.56
2022-08-18T00:06:42.423Z,99742.38
2022-08-18T00:07:49.926Z,99731.84
2022-08-18T00:08:53.010Z,99731.38
2022-08-18T00:09:55.846Z,99722.03
2022-08-18T00:10:58.678Z,99724.41
2022-08-18T00:12:04.158Z,99733.53
2022-08-18T00:13:06.348Z,99727.47
2022-08-18T00:14:14.520Z,99722.53
2022-08-18T00:15:25.623Z,99727.22
2022-08-18T00:16:28.784Z,99721.97
2022-08-18T00:17:32.413Z,99728.28
2022-08-18T00:18:35.701Z,99723.03
2022-08-18T00:19:46.167Z,99729.03
2022-08-18T00:20:50.176Z,99731.72
2022-08-18T00:21:52.482Z,99730.13
2022-08-18T00:22:56.685Z,99728.47
2022-08-18T00:23:58.919Z,99725.19
2022-08-18T00:25:04.396Z,99724.75
2022-08-18T00:26:06.660Z,99723.47
2022-08-18T00:27:10.660Z,99727.44
2022-08-18T00:28:14.162Z,99727.81
2022-08-18T00:29:16.361Z,99722.50
2022-08-18T00:30:23.616Z,99729.34
2022-08-18T00:31:26.106Z,99734.50
2022-08-18T00:32:36.094Z,99732.84
2022-08-18T00:33:38.444Z,99733.22
2022-08-18T00:34:40.896Z,99735.22
2022-08-18T00:35:43.106Z,99729.47
2022-08-18T00:36:45.356Z,99729.00
2022-08-18T00:37:49.218Z,99738.66
2022-08-18T00:38:52.058Z,99737.81
2022-08-18T00:39:54.492Z,99735.34
2022-08-18T00:40:56.931Z,99742.16
2022-08-18T00:42:00.479Z,99739.72
2022-08-18T00:43:04.965Z,99746.50
2022-08-18T00:44:07.305Z,99746.88
2022-08-18T00:45:14.486Z,99743.56
2022-08-18T00:46:26.545Z,99739.47
2022-08-18T00:47:32.988Z,99746.31
2022-08-18T00:48:49.048Z,99742.22
2022-08-18T00:49:53.498Z,99745.34
2022-08-18T00:51:02.741Z,99748.53
2022-08-18T00:52:05.660Z,99755.34
2022-08-18T00:53:29.013Z,99748.44
2022-08-18T00:54:33.030Z,99754.06
2022-08-18T00:55:35.901Z,99753.59
2022-08-18T00:56:44.360Z,99762.38
2022-08-18T00:57:48.444Z,99755.13
2022-08-18T00:58:58.275Z,99756.66
2022-08-18T01:00:13.214Z,99752.50
2022-08-18T01:01:19.551Z,99755.69
2022-08-18T01:02:34.130Z,99756.03
2022-08-18T01:03:40.142Z,99756.38
2022-08-18T01:04:50.126Z,99746.66
2022-08-18T01:06:11.902Z,99751.81
2022-08-18T01:07:22.475Z,99752.19
2022-08-18T01:08:29.059Z,99753.72
2022-08-18T01:09:31.794Z,99750.91
2022-08-18T01:10:34.398Z,99754.06
2022-08-18T01:11:38.708Z,99755.22
2022-08-18T01:12:45.901Z,99745.50
2022-08-18T01:13:49.044Z,99750.31
2022-08-18T01:14:51.303Z,99752.31
2022-08-18T01:15:53.474Z,99751.81
2022-08-18T01:17:15.155Z,99751.81
2022-08-18T01:18:36.150Z,99752.19
2022-08-18T01:19:57.493Z,99758.63
2022-08-18T01:21:47.747Z,99747.72
2022-08-18T01:23:12.069Z,99752.53
2022-08-18T01:24:17.481Z,99748.09
2022-08-18T01:25:42.502Z,99744.47
2022-08-18T01:26:50.172Z,99751.25
2022-08-18T01:27:52.699Z,99747.97
2022-08-18T01:28:54.979Z,99752.78
2022-08-18T01:29:57.659Z,99746.72
2022-08-18T01:31:01.111Z,99745.50
2022-08-18T01:32:03.733Z,99749.03
2022-08-18T01:33:10.677Z,99749.84
2022-08-18T01:34:13.141Z,99751.03
2022-08-18T01:35:18.195Z,99750.19
2022-08-18T01:36:22.087Z,99755.00
2022-08-18T01:37:24.740Z,99752.56
2022-08-18T01:38:27.496Z,99748.91
2022-08-18T01:41:12.876Z,99745.16
2022-08-18T01:41:27.426Z,99746.47
2022-08-18T01:42:18.271Z,99747.16
2022-08-18T01:43:21.320Z,99745.16
2022-08-18T01:44:23.542Z,99745.53
2022-08-18T01:45:26.340Z,99747.50
2022-08-18T01:46:30.680Z,99745.03
2022-08-18T01:47:47.699Z,99740.59
2022-08-18T01:48:51.413Z,99747.41
2022-08-18T01:49:53.643Z,99757.44
2022-08-18T01:50:57.035Z,99749.72
2022-08-18T01:51:59.218Z,99750.91
2022-08-18T01:53:04.541Z,99750.91
2022-08-18T01:54:06.786Z,99747.63
2022-08-18T01:55:09.789Z,99747.63
2022-08-18T01:56:13.232Z,99748.78
2022-08-18T01:57:16.746Z,99749.16
2022-08-18T01:58:18.953Z,99749.50
2022-08-18T01:59:21.174Z,99749.03
2022-08-18T02:00:25.104Z,99741.75
2022-08-18T02:01:36.206Z,99743.75
2022-08-18T02:02:40.024Z,99743.28
2022-08-18T02:03:49.500Z,99741.63
2022-08-18T02:04:55.215Z,99751.25
2022-08-18T02:06:04.320Z,99756.03
2022-08-18T02:07:11.525Z,99746.31
2022-08-18T02:08:15.493Z,99754.28
2022-08-18T02:09:24.141Z,99754.28
2022-08-18T02:10:27.704Z,99754.94
2022-08-18T02:11:29.876Z,99762.56
2022-08-18T02:12:35.346Z,99757.31
2022-08-18T02:13:37.600Z,99754.00
2022-08-18T02:14:48.052Z,99752.34
2022-08-18T02:15:50.352Z,99756.34
2022-08-18T02:16:52.549Z,99758.34
2022-08-18T02:17:54.714Z,99765.09
2022-08-18T02:18:56.926Z,99763.81
2022-08-18T02:20:01.510Z,99763.50
2022-08-18T02:21:13.946Z,99759.84
2022-08-18T02:22:21.948Z,99767.47
2022-08-18T02:23:25.036Z,99758.19
2022-08-18T02:24:27.258Z,99754.59
2022-08-18T02:25:29.464Z,99759.38
2022-08-18T02:26:34.738Z,99758.56
2022-08-18T02:27:37.271Z,99754.09
2022-08-18T02:28:40.079Z,99752.47
2022-08-18T02:29:42.993Z,99751.66
2022-08-18T02:30:45.239Z,99755.28
2022-08-18T02:31:47.575Z,99746.03
2022-08-18T02:32:49.929Z,99752.81
2022-08-18T02:33:52.881Z,99753.66
2022-08-18T02:34:55.269Z,99739.13
2022-08-18T02:35:57.508Z,99752.00
2022-08-18T02:37:01.133Z,99743.94
2022-08-18T02:38:05.494Z,99755.97
2022-08-18T02:39:09.204Z,99752.00
2022-08-18T02:40:15.221Z,99755.16
2022-08-18T02:41:18.155Z,99749.53
2022-08-18T02:42:20.708Z,99753.16
2022-08-18T02:43:23.463Z,99755.16
2022-08-18T02:44:25.691Z,99746.75
2022-08-18T02:45:27.906Z,99747.53
2022-08-18T02:46:31.344Z,99744.72
2022-08-18T02:47:34.184Z,99746.75
2022-08-18T02:48:36.361Z,99746.75
2022-08-18T02:49:41.585Z,99743.56
2022-08-18T02:50:47.270Z,99739.97
2022-08-18T02:51:51.377Z,99727.06
2022-08-18T02:52:54.707Z,99732.34
2022-08-18T02:54:00.382Z,99729.88
2022-08-18T02:55:03.425Z,99726.25
2022-08-18T02:56:40.142Z,99727.88
2022-08-18T02:57:47.575Z,99722.63
2022-08-18T02:58:53.655Z,99731.03
2022-08-18T02:59:56.349Z,99719.00
2022-08-18T03:01:05.030Z,99721.81
2022-08-18T03:02:09.290Z,99717.34
2022-08-18T03:03:12.486Z,99722.13
2022-08-18T03:04:17.710Z,99722.50
2022-08-18T03:05:23.293Z,99718.53
2022-08-18T03:06:27.027Z,99718.03
2022-08-18T03:07:32.217Z,99718.03
2022-08-18T03:08:37.401Z,99717.22
2022-08-18T03:09:39.671Z,99721.69
2022-08-18T03:10:41.918Z,99717.59
2022-08-18T03:11:44.861Z,99719.22
2022-08-18T03:12:51.418Z,99723.19
2022-08-18T03:13:55.236Z,99720.38
2022-08-18T03:14:57.489Z,99715.13
2022-08-18T03:16:00.050Z,99717.94
2022-08-18T03:17:05.813Z,99722.72
2022-08-18T03:18:08.004Z,99722.72
2022-08-18T03:19:10.208Z,99723.91
2022-08-18T03:20:12.808Z,99719.44
2022-08-18T03:21:18.452Z,99721.44
2022-08-18T03:22:28.122Z,99716.66
2022-08-18T03:23:34.058Z,99719.81
2022-08-18T03:24:36.545Z,99719.81
2022-08-18T03:25:47.391Z,99723.78
2022-08-18T03:26:51.850Z,99722.94
2022-08-18T03:27:54.132Z,99724.94
2022-08-18T03:28:57.777Z,99714.06
2022-08-18T03:30:00.515Z,99721.31
2022-08-18T03:31:02.819Z,99718.03
2022-08-18T03:32:07.290Z,99724.44
2022-08-18T03:33:17.498Z,99722.84
2022-08-18T03:34:21.133Z,99720.84
2022-08-18T03:35:23.306Z,99716.38
2022-08-18T03:36:28.827Z,99724.00
2022-08-18T03:37:31.058Z,99719.53
2022-08-18T03:38:36.226Z,99725.97
2022-08-18T03:39:38.531Z,99731.56
2022-08-18T03:40:41.024Z,99718.72
2022-08-18T03:41:58.653Z,99725.50
2022-08-18T03:43:49.566Z,99723.38
2022-08-18T03:44:34.376Z,99719.75
2022-08-18T03:45:36.599Z,99713.34
2022-08-18T03:46:41.190Z,99723.72
2022-08-18T03:47:46.095Z,99722.09
2022-08-18T03:48:49.472Z,99715.19
2022-08-18T03:49:51.672Z,99717.97
2022-08-18T03:50:53.858Z,99716.38
2022-08-18T03:51:56.495Z,99719.19
2022-08-18T03:52:59.766Z,99720.34
2022-08-18T03:54:04.118Z,99719.50
2022-08-18T03:55:06.603Z,99715.06
2022-08-18T03:56:16.055Z,99715.06
2022-08-18T03:57:19.995Z,99721.84
2022-08-18T03:58:22.171Z,99718.22
2022-08-18T03:59:26.285Z,99729.47
2022-08-18T04:00:33.884Z,99725.81
2022-08-18T04:01:41.965Z,99726.97
2022-08-18T04:02:44.235Z,99729.78
2022-08-18T04:03:49.945Z,99723.72
2022-08-18T04:04:52.844Z,99732.94
2022-08-18T04:05:55.061Z,99726.50
2022-08-18T04:07:00.231Z,99730.47
2022-08-18T04:08:05.089Z,99724.06
2022-08-18T04:09:13.543Z,99725.22
2022-08-18T04:10:19.407Z,99727.19
2022-08-18T04:11:23.018Z,99732.81
2022-08-18T04:12:25.186Z,99727.88
2022-08-18T04:13:27.371Z,99725.09
2022-08-18T04:14:33.388Z,99730.22
2022-08-18T04:15:37.532Z,99722.63
2022-08-18T04:16:40.900Z,99726.59
2022-08-18T04:18:03.080Z,99729.75
2022-08-18T04:19:05.831Z,99732.91
2022-08-18T04:20:08.496Z,99729.63
2022-08-18T04:21:13.752Z,99732.41
2022-08-18T04:22:19.309Z,99719.88
2022-08-18T04:23:21.552Z,99731.09
2022-08-18T04:24:30.917Z,99735.91
2022-08-18T04:25:34.112Z,99732.59
2022-08-18T04:26:40.160Z,99730.94
2022-08-18T04:27:43.884Z,99731.78
2022-08-18T04:28:46.295Z,99734.94
2022-08-18T04:29:48.598Z,99730.50
2022-08-18T04:30:50.978Z,99734.47
2022-08-18T04:31:53.290Z,99734.47
2022-08-18T04:32:55.448Z,99737.25
2022-08-18T04:33:59.604Z,99736.78
2022-08-18T04:35:02.787Z,99736.44
2022-08-18T04:36:12.477Z,99733.16
2022-08-18T04:37:22.099Z,99740.41
2022-08-18T04:38:24.497Z,99735.16
2022-08-18T04:39:26.844Z,99737.97
2022-08-18T04:40:29.693Z,99739.13
2022-08-18T04:41:32.090Z,99731.50
2022-08-18T04:42:34.281Z,99739.13
2022-08-18T04:43:42.406Z,99734.66
2022-08-18T04:44:44.598Z,99740.28
2022-08-18T04:45:47.616Z,99739.13
2022-08-18T04:46:53.650Z,99747.03
2022-08-18T04:47:58.676Z,99745.88
2022-08-18T04:49:00.931Z,99747.03
2022-08-18T04:50:03.996Z,99753.50
2022-08-18T04:51:10.584Z,99746.69
2022-08-18T04:52:40.253Z,99749.50
2022-08-18T04:53:47.791Z,99751.16
2022-08-18T04:54:50.233Z,99749.63
2022-08-18T04:55:55.618Z,99752.44
2022-08-18T04:56:57.946Z,99756.41
2022-08-18T04:58:00.927Z,99752.09
2022-08-18T04:59:08.289Z,99760.19
2022-08-18T05:00:13.944Z,99759.00
2022-08-18T05:01:17.828Z,99759.50
2022-08-18T05:02:21.410Z,99756.00
2022-08-18T05:03:26.812Z,99762.94
2022-08-18T05:04:30.387Z,99751.84
2022-08-18T05:05:32.554Z,99755.94
2022-08-18T05:06:36.162Z,99754.94
2022-08-18T05:07:45.002Z,99763.13
2022-08-18T05:08:48.618Z,99761.28
2022-08-18T05:09:54.216Z,99762.22
2022-08-18T05:11:03.519Z,99755.91
2022-08-18T05:12:07.103Z,99755.69
2022-08-18T05:13:09.969Z,99753.81
2022-08-18T05:14:12.274Z,99758.06
2022-08-18T05:15:14.471Z,99761.44
2022-08-18T05:16:27.821Z,99761.22
2022-08-18T05:17:31.173Z,99763.00
2022-08-18T05:18:39.379Z,99762.78
2022-08-18T05:19:47.111Z,99764.53
2022-08-18T05:20:53.264Z,99763.19
2022-08-18T05:21:59.943Z,99764.13
2022-08-18T05:23:03.780Z,99767.53
2022-08-18T05:24:06.197Z,99762.00
2022-08-18T05:25:10.606Z,99766.59
2022-08-18T05:26:16.980Z,99771.19
2022-08-18T05:27:19.198Z,99772.56
2022-08-18T05:28:21.436Z,99766.25
2022-08-18T05:29:23.706Z,99766.03
2022-08-18T05:30:26.115Z,99765.78
2022-08-18T05:31:29.393Z,99758.72
2022-08-18T05:32:47.421Z,99764.97
2022-08-18T05:33:52.573Z,99762.72
2022-08-18T05:34:54.816Z,99766.09
2022-08-18T05:36:06.744Z,99765.06
2022-08-18T05:37:28.071Z,99764.47
2022-08-18T05:38:59.004Z,99768.31
2022-08-18T05:40:07.576Z,99765.75
2022-08-18T05:41:21.562Z,99773.59
2022-08-18T05:42:26.440Z,99770.53
2022-08-18T05:43:28.629Z,99768.25
2022-08-18T05:44:34.590Z,99777.28
2022-08-18T05:45:39.118Z,99772.22
2022-08-18T05:46:50.595Z,99765.50
2022-08-18T05:48:02.120Z,99769.72
2022-08-18T05:49:04.988Z,99769.81
2022-08-18T05:50:10.997Z,99761.16
2022-08-18T05:51:21.091Z,99759.72
2022-08-18T05:52:23.194Z,99761.06
2022-08-18T05:53:45.459Z,99761.28
2022-08-18T05:55:16.412Z,99761.94
2022-08-18T05:56:46.569Z,99767.41
2022-08-18T05:57:55.049Z,99768.06
2022-08-18T05:58:59.705Z,99770.25
2022-08-18T06:00:04.961Z,99763.97
2022-08-18T06:01:27.439Z,99765.00
2022-08-18T06:02:39.631Z,99765.19
2022-08-18T06:03:48.933Z,99761.72
2022-08-18T06:04:56.242Z,99769.19
2022-08-18T06:06:09.142Z,99769.78
2022-08-18T06:07:27.028Z,99763.97
2022-08-18T06:08:50.556Z,99763.84
2022-08-18T06:09:57.694Z,99768.13
2022-08-18T06:10:59.873Z,99768.38
2022-08-18T06:12:22.713Z,99767.34
2022-08-18T06:13:24.958Z,99755.94
2022-08-18T06:14:30.151Z,99765.47
2022-08-18T06:15:44.421Z,99758.75
2022-08-18T06:16:59.697Z,99761.91
2022-08-18T06:18:18.437Z,99761.00
2022-08-18T06:19:46.164Z,99756.00
2022-08-18T06:21:14.332Z,99766.88
2022-08-18T06:23:03.173Z,99766.78
2022-08-18T06:24:25.069Z,99768.28
2022-08-18T06:25:40.072Z,99759.69
2022-08-18T06:27:03.008Z,99764.00
2022-08-18T06:28:13.368Z,99765.91
2022-08-18T06:29:50.428Z,99763.72
2022-08-18T06:31:11.506Z,99764.81
2022-08-18T06:32:45.313Z,99761.06
2022-08-18T06:34:13.011Z,99755.22
2022-08-18T06:35:39.936Z,99756.72
2022-08-18T06:36:52.749Z,99757.31
2022-08-18T06:38:36.851Z,99755.44
2022-08-18T06:39:48.753Z,99760.56
2022-08-18T06:41:03.306Z,99756.63
2022-08-18T06:42:08.381Z,99748.63
2022-08-18T06:43:17.377Z,99752.38
2022-08-18T06:44:44.556Z,99750.88
2022-08-18T06:45:52.270Z,99752.16
2022-08-18T06:47:04.409Z,99759.94
2022-08-18T06:48:30.842Z,99752.72
2022-08-18T06:50:04.975Z,99753.94
2022-08-18T06:51:08.661Z,99754.41
2022-08-18T06:52:34.278Z,99745.88
2022-08-18T06:53:58.546Z,99750.75
2022-08-18T06:55:09.411Z,99753.56
2022-08-18T06:56:34.170Z,99758.44
2022-08-18T06:57:53.591Z,99745.81
2022-08-18T06:59:32.429Z,99751.03
2022-08-18T07:00:46.533Z,99746.94
2022-08-18T07:02:02.147Z,99750.94
2022-08-18T07:03:09.635Z,99752.09
2022-08-18T07:04:33.932Z,99745.06
2022-08-18T07:05:37.404Z,99749.50
2022-08-18T07:06:41.345Z,99751.06
2022-08-18T07:07:47.868Z,99755.88
2022-08-18T07:08:52.978Z,99758.59
2022-08-18T07:09:55.253Z,99756.53
2022-08-18T07:11:12.618Z,99756.38
2022-08-18T07:12:29.049Z,99758.72
2022-08-18T07:13:41.763Z,99756.16
2022-08-18T07:15:05.976Z,99756.41
2022-08-18T07:16:40.547Z,99758.31
2022-08-18T07:17:48.959Z,99763.84
2022-08-18T07:18:52.622Z,99761.69
2022-08-18T07:19:58.256Z,99761.16
2022-08-18T07:21:03.661Z,99772.09
2022-08-18T07:22:17.468Z,99768.72
2022-08-18T07:23:40.052Z,99763.72
2022-08-18T07:24:45.786Z,99765.25
2022-08-18T07:25:53.035Z,99764.41
2022-08-18T07:27:04.101Z,99770.91
2022-08-18T07:28:07.396Z,99761.09
2022-08-18T07:29:15.265Z,99755.78
2022-08-18T07:30:20.297Z,99752.94
2022-08-18T07:31:49.229Z,99759.06
2022-08-18T07:33:21.363Z,99761.56
2022-08-18T07:34:26.689Z,99766.53
2022-08-18T07:35:39.294Z,99760.84
2022-08-18T07:36:55.732Z,99769.91
2022-08-18T07:39:50.576Z,99761.97
2022-08-18T07:41:06.322Z,99751.84
2022-08-18T07:42:54.082Z,99760.06
2022-08-18T07:43:52.709Z,99758.56
2022-08-18T07:45:03.305Z,99754.59
2022-08-18T07:46:13.541Z,99766.91
2022-08-18T07:47:35.639Z,99766.59
2022-08-18T07:48:40.744Z,99774.00
2022-08-18T07:50:13.461Z,99771.66
2022-08-18T07:51:17.363Z,99771.72
2022-08-18T07:52:36.657Z,99783.22
2022-08-18T07:54:02.126Z,99783.72
2022-08-18T07:55:31.512Z,99782.56
2022-08-18T07:57:04.819Z,99783.44
2022-08-18T07:58:47.831Z,99776.97
2022-08-18T08:00:00.192Z,99781.94
2022-08-18T08:01:10.924Z,99779.94
2022-08-18T08:02:13.107Z,99781.59
2022-08-18T08:04:03.736Z,99782.06
2022-08-18T08:05:35.210Z,99777.22
2022-08-18T08:07:23.797Z,99775.63
2022-08-18T08:08:31.243Z,99774.44
2022-08-18T08:09:52.095Z,99778.50
2022-08-18T08:11:27.647Z,99784.28
2022-08-18T08:12:48.303Z,99786.72
2022-08-18T08:14:11.984Z,99784.28
2022-08-18T08:15:28.203Z,99780.28
2022-08-18T08:17:10.032Z,99777.84
2022-08-18T08:18:40.657Z,99773.81
2022-08-18T08:20:03.698Z,99775.81
2022-08-18T08:21:18.542Z,99775.84
2022-08-18T08:22:48.576Z,99779.09
2022-08-18T08:24:10.355Z,99766.13
2022-08-18T08:25:52.110Z,99781.56
2022-08-18T08:27:00.371Z,99777.53
2022-08-18T08:28:33.267Z,99784.03
2022-08-18T08:29:53.732Z,99785.69
2022-08-18T08:31:33.079Z,99787.31
2022-08-18T08:32:35.190Z,99786.09
2022-08-18T08:33:44.387Z,99796.28
2022-08-18T08:34:57.221Z,99799.53
2022-08-18T08:36:11.230Z,99799.53
2022-08-18T08:37:19.569Z,99804.00
2022-08-18T08:38:45.019Z,99797.91
2022-08-18T08:39:58.033Z,99795.88
2022-08-18T08:41:05.321Z,99786.09
2022-08-18T08:42:31.713Z,99791.41
2022-08-18T08:43:44.127Z,99793.41
2022-08-18T08:45:02.583Z,99797.09
2022-08-18T08:46:08.397Z,99792.63
2022-08-18T08:47:35.992Z,99790.97
2022-08-18T08:48:49.636Z,99793.81
2022-08-18T08:50:00.917Z,99788.13
2022-08-18T08:51:33.873Z,99800.34
2022-08-18T08:52:49.383Z,99788.13
2022-08-18T08:53:58.357Z,99786.50
2022-08-18T08:55:07.501Z,99787.72
2022-08-18T08:56:14.733Z,99786.53
2022-08-18T08:57:18.961Z,99786.50
2022-08-18T08:58:40.476Z,99784.88
2022-08-18T08:59:47.512Z,99784.03
2022-08-18T09:00:51.830Z,99780.34
2022-08-18T09:02:06.263Z,99785.59
2022-08-18T09:03:30.115Z,99774.59
2022-08-18T09:04:53.281Z,99782.28
2022-08-18T09:06:29.166Z,99772.00
2022-08-18T09:07:56.053Z,99767.44
2022-08-18T09:09:25.206Z,99760.34
2022-08-18T09:11:04.214Z,99763.03
2022-08-18T09:12:48.595Z,99760.41
2022-08-18T09:13:59.681Z,99746.34
2022-08-18T09:15:13.883Z,99744.97
2022-08-18T09:16:52.076Z,99747.16
2022-08-18T09:18:15.792Z,99748.59
2022-08-18T09:20:55.135Z,99739.47
2022-08-18T09:22:10.233Z,99753.56
2022-08-18T09:23:24.427Z,99745.13
2022-08-18T09:24:30.407Z,99744.44
2022-08-18T09:25:47.336Z,99745.88
2022-08-18T09:26:54.033Z,99751.78
2022-08-18T09:28:13.332Z,99743.28
2022-08-18T09:29:27.361Z,99737.31
2022-08-18T09:30:59.246Z,99740.72
2022-08-18T09:32:20.162Z,99730.13
2022-08-18T09:33:32.104Z,99737.31
2022-08-18T09:34:53.195Z,99735.13
2022-08-18T09:36:13.200Z,99736.16
2022-08-18T09:37:29.902Z,99735.19
2022-08-18T09:38:55.777Z,99731.81
2022-08-18T09:41:01.067Z,99732.97
2022-08-18T09:42:00.275Z,99727.97
2022-08-18T09:43:13.974Z,99735.78
2022-08-18T09:44:43.278Z,99735.78
2022-08-18T09:45:47.691Z,99724.00
2022-08-18T09:47:01.685Z,99725.69
2022-08-18T09:48:28.295Z,99733.56
2022-08-18T09:49:38.973Z,99724.69
2022-08-18T09:50:57.212Z,99724.41
2022-08-18T09:52:24.388Z,99724.56
2022-08-18T09:54:13.828Z,99729.16
2022-08-18T09:55:16.023Z,99717.84
2022-08-18T09:56:54.321Z,99720.50
2022-08-18T09:58:19.285Z,99727.25
2022-08-18T09:59:34.518Z,99719.25
2022-08-18T10:00:37.144Z,99718.09
2022-08-18T10:01:41.965Z,99723.53
2022-08-18T10:02:49.785Z,99715.91
2022-08-18T10:04:21.479Z,99719.69
2022-08-18T10:05:28.822Z,99713.66
2022-08-18T10:06:31.919Z,99719.88
2022-08-18T10:11:00.877Z,99707.53
2022-08-18T10:12:36.262Z,99706.38
2022-08-18T10:13:59.262Z,99709.72
2022-08-18T10:15:33.208Z,99708.63
2022-08-18T10:17:21.250Z,99711.97
2022-08-18T10:18:54.264Z,99704.28
2022-08-18T10:20:26.110Z,99706.84
2022-08-18T10:21:50.644Z,99708.97
2022-08-18T10:24:38.163Z,99709.16
2022-08-18T10:25:45.771Z,99702.75
2022-08-18T10:28:50.215Z,99707.84
2022-08-18T10:29:56.196Z,99713.69
2022-08-18T10:31:10.048Z,99713.34
2022-08-18T10:32:14.312Z,99710.59
2022-08-18T10:33:57.226Z,99711.81
2022-08-18T10:34:59.474Z,99707.84
2022-08-18T10:36:03.145Z,99718.88
2022-08-18T10:37:28.341Z,99711.22
2022-08-18T10:38:48.953Z,99719.47
2022-08-18T10:39:56.362Z,99717.06
2022-08-18T10:42:34.750Z,99720.00
2022-08-18T10:43:57.323Z,99709.03
2022-08-18T10:45:11.949Z,99716.41
2022-08-18T10:46:34.347Z,99717.72
2022-08-18T10:47:37.960Z,99718.16
2022-08-18T10:48:40.318Z,99715.31
2022-08-18T10:49:49.874Z,99718.63
2022-08-18T10:51:21.366Z,99721.53
2022-08-18T10:52:54.434Z,99715.47
2022-08-18T10:54:23.283Z,99711.44
2022-08-18T10:55:53.710Z,99707.41
2022-08-18T10:57:20.623Z,99710.28
2022-08-18T10:58:47.401Z,99711.16
2022-08-18T10:59:56.686Z,99723.03
2022-08-18T11:01:12.321Z,99717.34
2022-08-18T11:02:40.020Z,99716.56
2022-08-18T11:03:58.374Z,99717.38
2022-08-18T11:05:06.538Z,99724.75
2022-08-18T11:07:44.783Z,99721.56
2022-08-18T11:08:53.203Z,99724.44
2022-08-18T11:13:01.606Z,99732.28
2022-08-18T11:16:41.543Z,99739.28
2022-08-18T11:17:55.164Z,99734.84
2022-08-18T11:19:06.539Z,99744.66
2022-08-18T11:20:12.913Z,99728.75
2022-08-18T11:21:42.088Z,99735.31
2022-08-18T11:22:57.069Z,99734.16
2022-08-18T11:24:06.281Z,99728.88
2022-08-18T11:25:39.828Z,99724.00
2022-08-18T11:28:20.166Z,99727.34
2022-08-18T11:29:38.173Z,99731.03
2022-08-18T11:30:43.898Z,99733.50
2022-08-18T11:31:52.724Z,99738.41
2022-08-18T11:32:57.756Z,99740.84
2022-08-18T11:34:00.433Z,99745.34
2022-08-18T11:35:19.683Z,99745.75
2022-08-18T11:36:30.944Z,99740.47
2022-08-18T11:37:51.543Z,99736.84
2022-08-18T11:38:56.135Z,99741.72
2022-08-18T11:40:01.036Z,99743.38
2022-08-18T11:41:24.469Z,99737.28
2022-08-18T11:42:41.494Z,99741.75
2022-08-18T11:43:50.621Z,99736.47
2022-08-18T11:45:02.769Z,99740.16
2022-08-18T11:46:42.953Z,99744.22
2022-08-18T11:48:14.783Z,99745.84
2022-08-18T11:49:33.451Z,99753.97
2022-08-18T11:51:01.442Z,99756.81
2022-08-18T11:52:29.604Z,99755.19
2022-08-18T11:53:57.982Z,99755.22
2022-08-18T11:55:14.617Z,99755.22
2022-08-18T11:56:30.786Z,99749.94
2022-08-18T11:57:58.758Z,99751.16
2022-08-18T11:59:12.660Z,99747.91
2022-08-18T12:00:42.540Z,99758.06
2022-08-18T12:01:59.893Z,99756.44
2022-08-18T12:03:05.847Z,99758.88
2022-08-18T12:04:11.182Z,99749.13
2022-08-18T12:05:13.750Z,99764.59
2022-08-18T12:06:27.070Z,99748.31
2022-08-18T12:07:35.411Z,99755.63
2022-08-18T12:08:57.204Z,99755.22
2022-08-18T12:10:28.826Z,99756.03
2022-08-18T12:11:36.061Z,99756.44
2022-08-18T12:12:51.760Z,99760.09
2022-08-18T12:14:29.678Z,99761.69
2022-08-18T12:15:43.652Z,99758.84
2022-08-18T12:16:53.946Z,99753.16
2022-08-18T12:17:56.498Z,99755.59
2022-08-18T12:19:00.820Z,99756.00
2022-08-18T12:20:09.301Z,99752.75
2022-08-18T12:21:14.268Z,99758.00
2022-08-18T12:22:31.388Z,99752.34
2022-08-18T12:25:16.232Z,99755.59
2022-08-18T12:26:39.020Z,99756.38
2022-08-18T12:27:49.545Z,99754.75
2022-08-18T12:28:51.720Z,99767.72
2022-08-18T12:29:57.656Z,99766.13
2022-08-18T12:31:00.006Z,99761.22
2022-08-18T12:32:02.220Z,99758.41
2022-08-18T12:33:12.549Z,99760.03
2022-08-18T12:34:16.192Z,99754.72
2022-08-18T12:35:22.256Z,99747.81
2022-08-18T12:36:25.178Z,99755.94
2022-08-18T12:37:58.185Z,99756.34
2022-08-18T12:38:56.280Z,99750.66
2022-08-18T12:40:02.197Z,99747.81
2022-08-18T12:41:05.786Z,99735.97
2022-08-18T12:42:10.621Z,99739.22
2022-08-18T12:43:13.277Z,99737.59
2022-08-18T12:44:15.508Z,99727.47
2022-08-18T12:45:21.043Z,99720.16
2022-08-18T12:46:25.545Z,99723.78
2022-08-18T12:47:31.203Z,99717.31
2022-08-18T12:48:33.916Z,99719.31
2022-08-18T12:49:36.553Z,99718.50
2022-08-18T12:50:54.599Z,99720.16
2022-08-18T12:51:58.892Z,99718.09
2022-08-18T12:53:05.878Z,99719.75
2022-08-18T12:54:10.459Z,99713.25
2022-08-18T12:55:21.354Z,99725.03
2022-08-18T12:56:30.703Z,99716.50
2022-08-18T12:57:52.273Z,99715.28
2022-08-18T12:58:55.589Z,99722.59
2022-08-18T13:00:09.247Z,99723.03
2022-08-18T13:01:19.191Z,99728.31
2022-08-18T13:02:22.295Z,99722.25
2022-08-18T13:03:24.526Z,99724.66
2022-08-18T13:04:29.826Z,99724.25
2022-08-18T13:05:37.199Z,99723.84
2022-08-18T13:06:59.932Z,99718.59
2022-08-18T13:08:05.510Z,99716.97
2022-08-18T13:09:16.189Z,99709.66
2022-08-18T13:10:21.766Z,99712.09
2022-08-18T13:11:43.091Z,99703.16
2022-08-18T13:12:45.281Z,99703.59
2022-08-18T13:13:52.691Z,99697.47
2022-08-18T13:14:58.183Z,99701.56
2022-08-18T13:16:01.249Z,99684.09
2022-08-18T13:17:09.167Z,99682.88
2022-08-18T13:18:14.624Z,99688.94
2022-08-18T13:19:17.041Z,99692.22
2022-08-18T13:20:19.281Z,99684.09
2022-08-18T13:21:23.151Z,99677.16
2022-08-18T13:22:32.649Z,99682.06
2022-08-18T13:23:36.742Z,99677.59
2022-08-18T13:24:39.540Z,99680.03
2022-08-18T13:25:44.656Z,99665.81
2022-08-18T13:26:50.172Z,99670.66
2022-08-18T13:29:18.127Z,99659.72
2022-08-18T13:30:29.705Z,99660.13
2022-08-18T13:31:34.837Z,99657.69
2022-08-18T13:32:58.239Z,99654.44
2022-08-18T13:34:03.805Z,99658.09
2022-08-18T13:35:09.041Z,99651.97
2022-08-18T13:36:15.994Z,99652.81
2022-08-18T13:37:18.839Z,99648.34
2022-08-18T13:38:27.779Z,99656.03
2022-08-18T13:39:33.927Z,99659.31
2022-08-18T13:40:38.126Z,99669.47
2022-08-18T13:41:53.707Z,99674.34
2022-08-18T13:42:57.108Z,99673.13
2022-08-18T13:44:01.647Z,99672.69
2022-08-18T13:45:22.762Z,99671.06
2022-08-18T13:46:30.898Z,99671.06
2022-08-18T13:47:38.297Z,99683.66
2022-08-18T13:48:44.200Z,99685.31
2022-08-18T13:49:58.130Z,99676.75
2022-08-18T13:51:03.817Z,99680.81
2022-08-18T13:52:12.129Z,99680.81
2022-08-18T13:53:31.588Z,99676.75
2022-08-18T13:54:35.527Z,99674.72
2022-08-18T13:55:37.852Z,99673.13
2022-08-18T13:56:40.054Z,99670.28
2022-08-18T13:57:49.646Z,99666.59
2022-08-18T13:58:53.313Z,99669.44
2022-08-18T13:59:59.166Z,99666.19
2022-08-18T14:01:29.838Z,99680.41
2022-08-18T14:02:32.954Z,99677.97
2022-08-18T14:03:47.027Z,99676.75
2022-08-18T14:04:51.863Z,99677.56
2022-08-18T14:06:01.781Z,99682.47
2022-08-18T14:07:18.690Z,99683.25
2022-08-18T14:08:21.251Z,99688.53
2022-08-18T14:09:27.722Z,99695.84
2022-08-18T14:10:38.639Z,99694.66
2022-08-18T14:11:44.410Z,99687.69
2022-08-18T14:13:00.475Z,99692.19
2022-08-18T14:14:20.856Z,99690.97
2022-08-18T14:15:23.957Z,99681.63
2022-08-18T14:16:29.452Z,99687.69
2022-08-18T14:17:33.842Z,99684.84